sensor_id;sensor_type;location;lat;lon;timestamp;P1;durP1;ratioP1;P2;durP2;ratioP2
757;SDS011;363;48.764;9.172;2022-10-16T00:00:53;5.93;;;3.13;;
757;SDS011;363;48.764;9.172;2022-10-16T00:03:19;2.87;;;2.57;;
757;SDS011;363;48.764;9.172;2022-10-16T00:05:44;3.00;;;2.00;;
757;SDS011;363;48.764;9.172;2022-10-16T00:08:10;2.20;;;1.73;;
757;SDS011;363;48.764;9.172;2022-10-16T00:10:37;8.48;;;2.45;;
757;SDS011;363;48.764;9.172;2022-10-16T00:13:03;6.37;;;2.40;;
757;SDS011;363;48.764;9.172;2022-10-16T00:15:29;2.50;;;2.30;;
757;SDS011;363;48.764;9.172;2022-10-16T00:17:55;1.90;;;1.80;;
757;SDS011;363;48.764;9.172;2022-10-16T00:20:21;2.83;;;1.90;;
757;SDS011;363;48.764;9.172;2022-10-16T00:22:46;3.50;;;2.60;;
757;SDS011;363;48.764;9.172;2022-10-16T00:25:12;3.40;;;2.33;;
757;SDS011;363;48.764;9.172;2022-10-16T00:27:37;2.93;;;2.10;;
757;SDS011;363;48.764;9.172;2022-10-16T00:30:03;5.33;;;2.33;;
757;SDS011;363;48.764;9.172;2022-10-16T00:32:29;5.72;;;2.17;;
757;SDS011;363;48.764;9.172;2022-10-16T00:34:55;3.17;;;2.17;;
757;SDS011;363;48.764;9.172;2022-10-16T00:37:21;4.80;;;2.00;;
757;SDS011;363;48.764;9.172;2022-10-16T00:39:46;2.40;;;2.20;;
757;SDS011;363;48.764;9.172;2022-10-16T00:42:16;3.53;;;2.20;;
757;SDS011;363;48.764;9.172;2022-10-16T00:47:12;2.85;;;2.20;;
757;SDS011;363;48.764;9.172;2022-10-16T00:49:44;4.00;;;1.90;;
757;SDS011;363;48.764;9.172;2022-10-16T00:52:12;3.17;;;2.00;;
757;SDS011;363;48.764;9.172;2022-10-16T00:54:39;2.88;;;1.90;;
757;SDS011;363;48.764;9.172;2022-10-16T00:57:05;2.43;;;2.00;;
757;SDS011;363;48.764;9.172;2022-10-16T00:59:33;4.05;;;2.28;;
757;SDS011;363;48.764;9.172;2022-10-16T01:02:04;2.85;;;2.35;;
757;SDS011;363;48.764;9.172;2022-10-16T01:04:50;2.75;;;2.05;;
757;SDS011;363;48.764;9.172;2022-10-16T01:15:14;3.70;;;2.08;;
757;SDS011;363;48.764;9.172;2022-10-16T01:17:49;3.05;;;2.10;;
757;SDS011;363;48.764;9.172;2022-10-16T01:22:57;3.28;;;2.20;;
757;SDS011;363;48.764;9.172;2022-10-16T01:28:21;4.83;;;2.50;;
757;SDS011;363;48.764;9.172;2022-10-16T01:30:52;2.08;;;1.80;;
757;SDS011;363;48.764;9.172;2022-10-16T01:33:24;2.67;;;1.60;;
757;SDS011;363;48.764;9.172;2022-10-16T01:35:56;3.28;;;2.50;;
757;SDS011;363;48.764;9.172;2022-10-16T01:38:29;2.42;;;1.98;;
757;SDS011;363;48.764;9.172;2022-10-16T01:41:00;1.90;;;1.70;;
757;SDS011;363;48.764;9.172;2022-10-16T01:43:40;2.88;;;1.65;;
757;SDS011;363;48.764;9.172;2022-10-16T01:46:08;2.42;;;1.85;;
757;SDS011;363;48.764;9.172;2022-10-16T01:48:35;3.67;;;2.35;;
757;SDS011;363;48.764;9.172;2022-10-16T01:51:04;5.35;;;2.10;;
757;SDS011;363;48.764;9.172;2022-10-16T01:53:33;3.65;;;2.22;;
757;SDS011;363;48.764;9.172;2022-10-16T01:55:59;4.10;;;2.00;;
757;SDS011;363;48.764;9.172;2022-10-16T01:58:26;2.97;;;1.85;;
757;SDS011;363;48.764;9.172;2022-10-16T02:00:55;3.60;;;1.98;;
757;SDS011;363;48.764;9.172;2022-10-16T02:03:22;2.15;;;1.95;;
757;SDS011;363;48.764;9.172;2022-10-16T02:05:54;7.83;;;2.30;;
757;SDS011;363;48.764;9.172;2022-10-16T02:08:22;2.58;;;2.10;;
757;SDS011;363;48.764;9.172;2022-10-16T02:10:50;6.40;;;2.90;;
757;SDS011;363;48.764;9.172;2022-10-16T02:13:22;3.20;;;1.80;;
757;SDS011;363;48.764;9.172;2022-10-16T02:15:52;4.55;;;1.80;;
757;SDS011;363;48.764;9.172;2022-10-16T02:18:18;2.47;;;1.83;;
757;SDS011;363;48.764;9.172;2022-10-16T02:23:37;6.30;;;1.80;;
757;SDS011;363;48.764;9.172;2022-10-16T02:26:27;2.70;;;1.95;;
757;SDS011;363;48.764;9.172;2022-10-16T02:29:14;5.15;;;1.75;;
757;SDS011;363;48.764;9.172;2022-10-16T02:31:43;6.10;;;1.85;;
757;SDS011;363;48.764;9.172;2022-10-16T02:34:14;2.17;;;1.92;;
757;SDS011;363;48.764;9.172;2022-10-16T02:36:41;2.10;;;1.92;;
757;SDS011;363;48.764;9.172;2022-10-16T02:39:09;3.50;;;1.60;;
757;SDS011;363;48.764;9.172;2022-10-16T02:41:35;2.90;;;2.15;;
757;SDS011;363;48.764;9.172;2022-10-16T02:44:01;3.77;;;2.27;;
757;SDS011;363;48.764;9.172;2022-10-16T02:46:27;4.10;;;2.23;;
757;SDS011;363;48.764;9.172;2022-10-16T02:48:52;2.30;;;1.83;;
757;SDS011;363;48.764;9.172;2022-10-16T02:51:18;2.53;;;2.10;;
757;SDS011;363;48.764;9.172;2022-10-16T02:53:43;3.83;;;1.90;;
757;SDS011;363;48.764;9.172;2022-10-16T02:56:09;1.83;;;1.70;;
757;SDS011;363;48.764;9.172;2022-10-16T02:58:35;3.27;;;2.30;;
757;SDS011;363;48.764;9.172;2022-10-16T03:01:00;2.70;;;1.87;;
757;SDS011;363;48.764;9.172;2022-10-16T03:03:26;4.60;;;2.03;;
757;SDS011;363;48.764;9.172;2022-10-16T03:05:52;4.43;;;1.93;;
757;SDS011;363;48.764;9.172;2022-10-16T03:08:17;3.83;;;2.87;;
757;SDS011;363;48.764;9.172;2022-10-16T03:10:48;5.85;;;1.90;;
757;SDS011;363;48.764;9.172;2022-10-16T03:13:14;2.00;;;1.80;;
757;SDS011;363;48.764;9.172;2022-10-16T03:15:39;2.37;;;1.77;;
757;SDS011;363;48.764;9.172;2022-10-16T03:18:05;2.43;;;1.87;;
757;SDS011;363;48.764;9.172;2022-10-16T03:20:30;2.67;;;1.83;;
757;SDS011;363;48.764;9.172;2022-10-16T03:22:56;4.30;;;1.80;;
757;SDS011;363;48.764;9.172;2022-10-16T03:25:22;2.27;;;1.90;;
757;SDS011;363;48.764;9.172;2022-10-16T03:27:47;2.60;;;1.70;;
757;SDS011;363;48.764;9.172;2022-10-16T03:30:13;2.10;;;1.90;;
757;SDS011;363;48.764;9.172;2022-10-16T03:32:39;2.20;;;2.00;;
757;SDS011;363;48.764;9.172;2022-10-16T03:35:04;2.10;;;1.70;;
757;SDS011;363;48.764;9.172;2022-10-16T03:37:30;2.15;;;1.73;;
757;SDS011;363;48.764;9.172;2022-10-16T03:39:56;2.37;;;1.60;;
757;SDS011;363;48.764;9.172;2022-10-16T03:42:21;6.60;;;1.93;;
757;SDS011;363;48.764;9.172;2022-10-16T03:44:47;1.90;;;1.80;;
757;SDS011;363;48.764;9.172;2022-10-16T03:47:13;2.13;;;1.50;;
757;SDS011;363;48.764;9.172;2022-10-16T03:49:38;4.07;;;1.80;;
757;SDS011;363;48.764;9.172;2022-10-16T03:52:04;1.73;;;1.60;;
757;SDS011;363;48.764;9.172;2022-10-16T03:54:29;3.10;;;1.87;;
757;SDS011;363;48.764;9.172;2022-10-16T03:56:55;5.47;;;1.70;;
757;SDS011;363;48.764;9.172;2022-10-16T03:59:20;3.30;;;2.30;;
757;SDS011;363;48.764;9.172;2022-10-16T04:01:46;1.80;;;1.37;;
757;SDS011;363;48.764;9.172;2022-10-16T04:04:12;4.63;;;2.03;;
757;SDS011;363;48.764;9.172;2022-10-16T04:06:37;2.50;;;1.60;;
757;SDS011;363;48.764;9.172;2022-10-16T04:09:03;1.73;;;1.60;;
757;SDS011;363;48.764;9.172;2022-10-16T04:11:28;3.83;;;1.90;;
757;SDS011;363;48.764;9.172;2022-10-16T04:13:54;2.60;;;1.70;;
757;SDS011;363;48.764;9.172;2022-10-16T04:16:19;2.03;;;1.80;;
757;SDS011;363;48.764;9.172;2022-10-16T04:18:45;2.57;;;1.70;;
757;SDS011;363;48.764;9.172;2022-10-16T04:21:11;6.90;;;1.70;;
757;SDS011;363;48.764;9.172;2022-10-16T04:23:36;2.10;;;1.90;;
757;SDS011;363;48.764;9.172;2022-10-16T04:26:02;1.93;;;1.60;;
757;SDS011;363;48.764;9.172;2022-10-16T04:28:28;1.50;;;1.40;;
757;SDS011;363;48.764;9.172;2022-10-16T04:30:53;2.07;;;1.87;;
757;SDS011;363;48.764;9.172;2022-10-16T04:33:19;3.13;;;1.90;;
757;SDS011;363;48.764;9.172;2022-10-16T04:35:45;9.43;;;2.37;;
757;SDS011;363;48.764;9.172;2022-10-16T04:38:10;1.97;;;1.67;;
757;SDS011;363;48.764;9.172;2022-10-16T04:40:36;6.23;;;2.10;;
757;SDS011;363;48.764;9.172;2022-10-16T04:43:02;2.10;;;1.90;;
757;SDS011;363;48.764;9.172;2022-10-16T04:45:29;4.00;;;1.77;;
757;SDS011;363;48.764;9.172;2022-10-16T04:47:58;3.77;;;2.10;;
757;SDS011;363;48.764;9.172;2022-10-16T04:50:24;4.35;;;1.90;;
757;SDS011;363;48.764;9.172;2022-10-16T04:52:50;6.27;;;2.00;;
757;SDS011;363;48.764;9.172;2022-10-16T04:55:15;3.23;;;1.77;;
757;SDS011;363;48.764;9.172;2022-10-16T04:57:41;2.20;;;2.00;;
757;SDS011;363;48.764;9.172;2022-10-16T05:00:07;5.03;;;1.50;;
757;SDS011;363;48.764;9.172;2022-10-16T05:02:33;2.50;;;1.80;;
757;SDS011;363;48.764;9.172;2022-10-16T05:04:59;3.30;;;2.00;;
757;SDS011;363;48.764;9.172;2022-10-16T05:07:24;2.30;;;1.97;;
757;SDS011;363;48.764;9.172;2022-10-16T05:09:50;2.97;;;2.40;;
757;SDS011;363;48.764;9.172;2022-10-16T05:12:16;4.47;;;1.60;;
757;SDS011;363;48.764;9.172;2022-10-16T05:14:42;5.60;;;2.10;;
757;SDS011;363;48.764;9.172;2022-10-16T05:17:07;2.00;;;1.60;;
757;SDS011;363;48.764;9.172;2022-10-16T05:19:33;3.20;;;1.90;;
757;SDS011;363;48.764;9.172;2022-10-16T05:21:58;2.23;;;1.73;;
757;SDS011;363;48.764;9.172;2022-10-16T05:24:24;2.60;;;1.77;;
757;SDS011;363;48.764;9.172;2022-10-16T05:26:50;2.57;;;1.60;;
757;SDS011;363;48.764;9.172;2022-10-16T05:29:16;2.55;;;1.95;;
757;SDS011;363;48.764;9.172;2022-10-16T05:31:41;3.60;;;1.70;;
757;SDS011;363;48.764;9.172;2022-10-16T05:34:07;2.43;;;2.00;;
757;SDS011;363;48.764;9.172;2022-10-16T05:36:33;2.37;;;1.80;;
757;SDS011;363;48.764;9.172;2022-10-16T05:38:58;4.30;;;2.00;;
757;SDS011;363;48.764;9.172;2022-10-16T05:41:24;2.90;;;2.00;;
757;SDS011;363;48.764;9.172;2022-10-16T05:43:51;2.20;;;2.00;;
757;SDS011;363;48.764;9.172;2022-10-16T05:46:17;4.40;;;1.80;;
757;SDS011;363;48.764;9.172;2022-10-16T05:48:42;5.13;;;1.80;;
757;SDS011;363;48.764;9.172;2022-10-16T05:51:11;4.17;;;2.20;;
757;SDS011;363;48.764;9.172;2022-10-16T05:53:38;2.40;;;2.20;;
757;SDS011;363;48.764;9.172;2022-10-16T05:56:05;2.63;;;2.40;;
757;SDS011;363;48.764;9.172;2022-10-16T05:58:33;5.03;;;2.08;;
757;SDS011;363;48.764;9.172;2022-10-16T06:01:04;2.40;;;2.17;;
757;SDS011;363;48.764;9.172;2022-10-16T06:03:32;6.32;;;1.92;;
757;SDS011;363;48.764;9.172;2022-10-16T06:05:58;2.13;;;1.70;;
757;SDS011;363;48.764;9.172;2022-10-16T06:08:24;2.53;;;1.98;;
757;SDS011;363;48.764;9.172;2022-10-16T06:11:00;1.50;;;1.40;;
757;SDS011;363;48.764;9.172;2022-10-16T06:13:29;3.53;;;2.05;;
757;SDS011;363;48.764;9.172;2022-10-16T06:15:56;5.03;;;2.07;;
757;SDS011;363;48.764;9.172;2022-10-16T06:18:23;4.07;;;2.30;;
757;SDS011;363;48.764;9.172;2022-10-16T06:20:49;4.45;;;2.15;;
757;SDS011;363;48.764;9.172;2022-10-16T06:23:15;2.40;;;2.20;;
757;SDS011;363;48.764;9.172;2022-10-16T06:25:40;5.20;;;2.07;;
757;SDS011;363;48.764;9.172;2022-10-16T06:28:06;4.73;;;2.10;;
757;SDS011;363;48.764;9.172;2022-10-16T06:30:31;2.20;;;2.03;;
757;SDS011;363;48.764;9.172;2022-10-16T06:32:57;3.27;;;2.00;;
757;SDS011;363;48.764;9.172;2022-10-16T06:35:23;2.80;;;1.70;;
757;SDS011;363;48.764;9.172;2022-10-16T06:37:48;2.23;;;2.03;;
757;SDS011;363;48.764;9.172;2022-10-16T06:40:14;7.73;;;2.40;;
757;SDS011;363;48.764;9.172;2022-10-16T06:42:40;2.30;;;2.10;;
757;SDS011;363;48.764;9.172;2022-10-16T06:45:06;2.78;;;2.10;;
757;SDS011;363;48.764;9.172;2022-10-16T06:47:32;3.65;;;2.28;;
757;SDS011;363;48.764;9.172;2022-10-16T06:49:58;8.10;;;2.27;;
757;SDS011;363;48.764;9.172;2022-10-16T06:52:23;4.10;;;2.27;;
757;SDS011;363;48.764;9.172;2022-10-16T06:54:49;4.10;;;2.77;;
757;SDS011;363;48.764;9.172;2022-10-16T06:57:15;2.93;;;2.33;;
757;SDS011;363;48.764;9.172;2022-10-16T06:59:41;2.50;;;2.00;;
757;SDS011;363;48.764;9.172;2022-10-16T07:02:07;4.93;;;2.50;;
757;SDS011;363;48.764;9.172;2022-10-16T07:04:33;4.78;;;2.50;;
757;SDS011;363;48.764;9.172;2022-10-16T07:07:00;3.78;;;2.40;;
757;SDS011;363;48.764;9.172;2022-10-16T07:09:26;5.60;;;3.27;;
757;SDS011;363;48.764;9.172;2022-10-16T07:11:51;4.43;;;2.23;;
757;SDS011;363;48.764;9.172;2022-10-16T07:14:18;2.72;;;1.83;;
757;SDS011;363;48.764;9.172;2022-10-16T07:16:45;2.70;;;2.50;;
757;SDS011;363;48.764;9.172;2022-10-16T07:19:11;2.58;;;1.90;;
757;SDS011;363;48.764;9.172;2022-10-16T07:21:39;2.20;;;2.00;;
757;SDS011;363;48.764;9.172;2022-10-16T07:24:06;4.23;;;1.97;;
757;SDS011;363;48.764;9.172;2022-10-16T07:26:36;2.40;;;1.90;;
757;SDS011;363;48.764;9.172;2022-10-16T07:29:04;4.30;;;2.08;;
757;SDS011;363;48.764;9.172;2022-10-16T07:31:30;3.38;;;2.30;;
757;SDS011;363;48.764;9.172;2022-10-16T07:33:57;2.80;;;2.03;;
757;SDS011;363;48.764;9.172;2022-10-16T07:36:23;2.72;;;1.85;;
757;SDS011;363;48.764;9.172;2022-10-16T07:38:49;5.23;;;2.40;;
757;SDS011;363;48.764;9.172;2022-10-16T07:41:16;6.10;;;2.37;;
757;SDS011;363;48.764;9.172;2022-10-16T07:43:47;2.38;;;2.15;;
757;SDS011;363;48.764;9.172;2022-10-16T07:46:14;2.10;;;1.90;;
757;SDS011;363;48.764;9.172;2022-10-16T07:48:40;2.17;;;2.00;;
757;SDS011;363;48.764;9.172;2022-10-16T07:51:06;3.33;;;2.30;;
757;SDS011;363;48.764;9.172;2022-10-16T07:53:32;2.70;;;2.20;;
757;SDS011;363;48.764;9.172;2022-10-16T07:55:59;2.75;;;2.00;;
757;SDS011;363;48.764;9.172;2022-10-16T07:58:30;3.10;;;2.05;;
757;SDS011;363;48.764;9.172;2022-10-16T08:00:56;3.58;;;2.53;;
757;SDS011;363;48.764;9.172;2022-10-16T08:03:22;3.70;;;2.67;;
757;SDS011;363;48.764;9.172;2022-10-16T08:05:48;2.17;;;1.90;;
757;SDS011;363;48.764;9.172;2022-10-16T08:08:14;2.90;;;2.37;;
757;SDS011;363;48.764;9.172;2022-10-16T08:10:41;3.55;;;1.80;;
757;SDS011;363;48.764;9.172;2022-10-16T08:13:07;4.05;;;2.38;;
757;SDS011;363;48.764;9.172;2022-10-16T08:15:33;4.07;;;2.57;;
757;SDS011;363;48.764;9.172;2022-10-16T08:17:59;2.50;;;2.30;;
757;SDS011;363;48.764;9.172;2022-10-16T08:20:27;4.28;;;2.00;;
757;SDS011;363;48.764;9.172;2022-10-16T08:22:54;2.45;;;2.00;;
757;SDS011;363;48.764;9.172;2022-10-16T08:25:21;2.53;;;2.20;;
757;SDS011;363;48.764;9.172;2022-10-16T08:27:47;2.20;;;2.00;;
757;SDS011;363;48.764;9.172;2022-10-16T08:30:13;2.47;;;2.13;;
757;SDS011;363;48.764;9.172;2022-10-16T08:32:39;3.72;;;1.67;;
757;SDS011;363;48.764;9.172;2022-10-16T08:35:06;3.45;;;1.80;;
757;SDS011;363;48.764;9.172;2022-10-16T08:37:34;1.70;;;1.60;;
757;SDS011;363;48.764;9.172;2022-10-16T08:40:00;2.00;;;1.60;;
757;SDS011;363;48.764;9.172;2022-10-16T08:47:54;2.22;;;1.77;;
757;SDS011;363;48.764;9.172;2022-10-16T08:50:39;6.45;;;2.28;;
757;SDS011;363;48.764;9.172;2022-10-16T08:53:06;6.25;;;1.70;;
757;SDS011;363;48.764;9.172;2022-10-16T08:55:43;2.45;;;1.60;;
757;SDS011;363;48.764;9.172;2022-10-16T08:58:15;1.80;;;1.70;;
757;SDS011;363;48.764;9.172;2022-10-16T09:00:44;3.45;;;2.35;;
757;SDS011;363;48.764;9.172;2022-10-16T09:12:02;3.58;;;2.20;;
757;SDS011;363;48.764;9.172;2022-10-16T09:22:45;3.50;;;1.98;;
757;SDS011;363;48.764;9.172;2022-10-16T09:25:13;4.63;;;2.30;;
757;SDS011;363;48.764;9.172;2022-10-16T09:27:40;2.70;;;2.00;;
757;SDS011;363;48.764;9.172;2022-10-16T09:30:16;1.63;;;1.52;;
757;SDS011;363;48.764;9.172;2022-10-16T09:32:44;3.05;;;2.00;;
757;SDS011;363;48.764;9.172;2022-10-16T09:35:16;5.10;;;1.70;;
757;SDS011;363;48.764;9.172;2022-10-16T09:37:45;1.92;;;1.80;;
757;SDS011;363;48.764;9.172;2022-10-16T09:40:23;2.15;;;1.95;;
757;SDS011;363;48.764;9.172;2022-10-16T09:43:00;1.60;;;1.50;;
757;SDS011;363;48.764;9.172;2022-10-16T09:45:58;1.75;;;1.65;;
757;SDS011;363;48.764;9.172;2022-10-16T09:48:44;3.13;;;1.80;;
757;SDS011;363;48.764;9.172;2022-10-16T09:51:20;2.40;;;2.00;;
757;SDS011;363;48.764;9.172;2022-10-16T09:53:56;1.90;;;1.70;;
757;SDS011;363;48.764;9.172;2022-10-16T09:56:25;1.87;;;1.70;;
757;SDS011;363;48.764;9.172;2022-10-16T09:58:52;2.60;;;1.80;;
757;SDS011;363;48.764;9.172;2022-10-16T10:01:20;1.97;;;1.60;;
757;SDS011;363;48.764;9.172;2022-10-16T10:03:47;1.87;;;1.73;;
757;SDS011;363;48.764;9.172;2022-10-16T10:06:16;2.97;;;1.90;;
757;SDS011;363;48.764;9.172;2022-10-16T10:09:32;1.80;;;1.67;;
757;SDS011;363;48.764;9.172;2022-10-16T10:11:54;4.73;;;2.23;;
757;SDS011;363;48.764;9.172;2022-10-16T10:17:26;1.70;;;1.60;;
757;SDS011;363;48.764;9.172;2022-10-16T10:19:56;3.20;;;1.50;;
757;SDS011;363;48.764;9.172;2022-10-16T10:22:43;1.70;;;1.60;;
757;SDS011;363;48.764;9.172;2022-10-16T10:38:16;3.80;;;2.90;;
757;SDS011;363;48.764;9.172;2022-10-16T10:46:42;2.77;;;2.03;;
757;SDS011;363;48.764;9.172;2022-10-16T10:57:45;2.30;;;1.80;;
757;SDS011;363;48.764;9.172;2022-10-16T11:00:23;2.20;;;2.00;;
757;SDS011;363;48.764;9.172;2022-10-16T11:03:22;2.70;;;2.00;;
757;SDS011;363;48.764;9.172;2022-10-16T11:09:02;3.07;;;2.20;;
757;SDS011;363;48.764;9.172;2022-10-16T11:11:40;2.53;;;2.23;;
757;SDS011;363;48.764;9.172;2022-10-16T11:16:48;3.20;;;2.47;;
757;SDS011;363;48.764;9.172;2022-10-16T11:19:41;3.63;;;2.20;;
757;SDS011;363;48.764;9.172;2022-10-16T11:27:51;4.30;;;2.00;;
757;SDS011;363;48.764;9.172;2022-10-16T11:30:21;4.70;;;2.30;;
757;SDS011;363;48.764;9.172;2022-10-16T11:33:04;1.93;;;1.83;;
757;SDS011;363;48.764;9.172;2022-10-16T11:38:22;3.10;;;2.50;;
757;SDS011;363;48.764;9.172;2022-10-16T11:41:16;3.10;;;1.83;;
757;SDS011;363;48.764;9.172;2022-10-16T11:46:38;2.67;;;2.10;;
757;SDS011;363;48.764;9.172;2022-10-16T11:49:13;2.27;;;2.10;;
757;SDS011;363;48.764;9.172;2022-10-16T11:51:48;2.67;;;2.00;;
757;SDS011;363;48.764;9.172;2022-10-16T11:54:32;1.93;;;1.23;;
757;SDS011;363;48.764;9.172;2022-10-16T11:57:09;4.80;;;2.93;;
757;SDS011;363;48.764;9.172;2022-10-16T11:59:42;2.03;;;1.93;;
757;SDS011;363;48.764;9.172;2022-10-16T12:08:15;2.50;;;2.30;;
757;SDS011;363;48.764;9.172;2022-10-16T12:10:43;2.77;;;1.40;;
757;SDS011;363;48.764;9.172;2022-10-16T12:13:30;2.53;;;1.93;;
757;SDS011;363;48.764;9.172;2022-10-16T12:16:06;2.67;;;1.50;;
757;SDS011;363;48.764;9.172;2022-10-16T12:18:39;2.67;;;1.80;;
757;SDS011;363;48.764;9.172;2022-10-16T12:21:07;3.20;;;2.10;;
757;SDS011;363;48.764;9.172;2022-10-16T12:23:36;5.50;;;1.87;;
757;SDS011;363;48.764;9.172;2022-10-16T12:26:04;1.67;;;1.57;;
757;SDS011;363;48.764;9.172;2022-10-16T12:28:31;3.77;;;1.90;;
757;SDS011;363;48.764;9.172;2022-10-16T12:30:59;3.07;;;2.20;;
757;SDS011;363;48.764;9.172;2022-10-16T12:33:37;2.00;;;1.60;;
757;SDS011;363;48.764;9.172;2022-10-16T12:36:14;3.13;;;1.90;;
757;SDS011;363;48.764;9.172;2022-10-16T12:38:52;2.87;;;2.10;;
757;SDS011;363;48.764;9.172;2022-10-16T12:41:32;2.27;;;1.60;;
757;SDS011;363;48.764;9.172;2022-10-16T12:44:00;2.57;;;1.67;;
757;SDS011;363;48.764;9.172;2022-10-16T12:49:55;4.97;;;4.50;;
757;SDS011;363;48.764;9.172;2022-10-16T12:51:55;2.57;;;2.37;;
757;SDS011;363;48.764;9.172;2022-10-16T12:54:55;7.70;;;2.93;;
757;SDS011;363;48.764;9.172;2022-10-16T12:57:21;2.73;;;1.70;;
757;SDS011;363;48.764;9.172;2022-10-16T13:03:06;2.70;;;2.20;;
757;SDS011;363;48.764;9.172;2022-10-16T13:11:20;3.07;;;2.73;;
757;SDS011;363;48.764;9.172;2022-10-16T13:17:32;1.77;;;1.67;;
757;SDS011;363;48.764;9.172;2022-10-16T13:22:36;2.40;;;2.10;;
757;SDS011;363;48.764;9.172;2022-10-16T13:30:27;2.83;;;1.90;;
757;SDS011;363;48.764;9.172;2022-10-16T13:33:01;1.90;;;1.70;;
757;SDS011;363;48.764;9.172;2022-10-16T13:35:28;3.47;;;1.87;;
757;SDS011;363;48.764;9.172;2022-10-16T13:38:09;1.93;;;1.73;;
757;SDS011;363;48.764;9.172;2022-10-16T13:40:47;3.07;;;2.00;;
757;SDS011;363;48.764;9.172;2022-10-16T13:43:18;2.90;;;1.93;;
757;SDS011;363;48.764;9.172;2022-10-16T13:46:04;2.10;;;2.00;;
757;SDS011;363;48.764;9.172;2022-10-16T13:48:32;2.73;;;1.60;;
757;SDS011;363;48.764;9.172;2022-10-16T13:50:59;2.43;;;2.00;;
757;SDS011;363;48.764;9.172;2022-10-16T13:53:30;2.10;;;1.90;;
757;SDS011;363;48.764;9.172;2022-10-16T13:55:57;3.60;;;2.67;;
757;SDS011;363;48.764;9.172;2022-10-16T13:58:25;2.40;;;2.20;;
757;SDS011;363;48.764;9.172;2022-10-16T14:00:54;3.90;;;3.50;;
757;SDS011;363;48.764;9.172;2022-10-16T14:03:24;3.73;;;3.37;;
757;SDS011;363;48.764;9.172;2022-10-16T14:06:01;3.17;;;2.97;;
757;SDS011;363;48.764;9.172;2022-10-16T14:08:29;2.90;;;2.67;;
757;SDS011;363;48.764;9.172;2022-10-16T14:10:56;2.77;;;2.50;;
757;SDS011;363;48.764;9.172;2022-10-16T14:13:31;4.43;;;2.17;;
757;SDS011;363;48.764;9.172;2022-10-16T14:16:05;2.30;;;2.10;;
757;SDS011;363;48.764;9.172;2022-10-16T14:18:33;2.50;;;2.30;;
757;SDS011;363;48.764;9.172;2022-10-16T14:21:06;3.70;;;2.27;;
757;SDS011;363;48.764;9.172;2022-10-16T14:23:40;2.60;;;2.40;;
757;SDS011;363;48.764;9.172;2022-10-16T14:28:35;2.20;;;1.80;;
757;SDS011;363;48.764;9.172;2022-10-16T14:31:13;2.80;;;2.00;;
757;SDS011;363;48.764;9.172;2022-10-16T14:33:58;3.13;;;2.50;;
757;SDS011;363;48.764;9.172;2022-10-16T14:36:25;2.00;;;1.73;;
757;SDS011;363;48.764;9.172;2022-10-16T14:41:23;2.20;;;2.00;;
757;SDS011;363;48.764;9.172;2022-10-16T14:43:50;4.00;;;2.53;;
757;SDS011;363;48.764;9.172;2022-10-16T14:46:19;3.27;;;2.97;;
757;SDS011;363;48.764;9.172;2022-10-16T14:48:51;3.50;;;2.47;;
757;SDS011;363;48.764;9.172;2022-10-16T14:51:21;2.77;;;2.53;;
757;SDS011;363;48.764;9.172;2022-10-16T14:53:48;2.60;;;2.40;;
757;SDS011;363;48.764;9.172;2022-10-16T14:56:24;4.50;;;2.30;;
757;SDS011;363;48.764;9.172;2022-10-16T14:58:52;3.97;;;3.10;;
757;SDS011;363;48.764;9.172;2022-10-16T15:01:18;4.43;;;3.23;;
757;SDS011;363;48.764;9.172;2022-10-16T15:03:45;3.70;;;3.17;;
757;SDS011;363;48.764;9.172;2022-10-16T15:06:11;3.00;;;2.80;;
757;SDS011;363;48.764;9.172;2022-10-16T15:08:37;3.80;;;2.97;;
757;SDS011;363;48.764;9.172;2022-10-16T15:11:03;5.03;;;3.63;;
757;SDS011;363;48.764;9.172;2022-10-16T15:13:29;3.63;;;2.53;;
757;SDS011;363;48.764;9.172;2022-10-16T15:15:55;4.30;;;2.70;;
757;SDS011;363;48.764;9.172;2022-10-16T15:18:20;2.90;;;2.60;;
757;SDS011;363;48.764;9.172;2022-10-16T15:20:48;3.23;;;2.40;;
757;SDS011;363;48.764;9.172;2022-10-16T15:23:18;3.40;;;3.10;;
757;SDS011;363;48.764;9.172;2022-10-16T15:25:50;4.53;;;3.67;;
757;SDS011;363;48.764;9.172;2022-10-16T15:28:18;3.07;;;2.87;;
757;SDS011;363;48.764;9.172;2022-10-16T15:30:45;3.03;;;2.73;;
757;SDS011;363;48.764;9.172;2022-10-16T15:33:13;3.13;;;2.90;;
757;SDS011;363;48.764;9.172;2022-10-16T15:35:41;5.07;;;3.07;;
757;SDS011;363;48.764;9.172;2022-10-16T15:38:09;3.40;;;2.90;;
757;SDS011;363;48.764;9.172;2022-10-16T15:40:37;3.00;;;2.37;;
757;SDS011;363;48.764;9.172;2022-10-16T15:43:02;3.10;;;2.43;;
757;SDS011;363;48.764;9.172;2022-10-16T15:45:28;3.50;;;2.10;;
757;SDS011;363;48.764;9.172;2022-10-16T15:47:53;4.73;;;2.43;;
757;SDS011;363;48.764;9.172;2022-10-16T15:50:19;2.93;;;2.60;;
757;SDS011;363;48.764;9.172;2022-10-16T15:52:44;4.80;;;2.77;;
757;SDS011;363;48.764;9.172;2022-10-16T15:55:11;2.90;;;2.57;;
757;SDS011;363;48.764;9.172;2022-10-16T15:57:39;2.30;;;2.10;;
757;SDS011;363;48.764;9.172;2022-10-16T16:00:08;6.20;;;2.73;;
757;SDS011;363;48.764;9.172;2022-10-16T16:02:35;3.50;;;3.20;;
757;SDS011;363;48.764;9.172;2022-10-16T16:05:01;3.80;;;3.43;;
757;SDS011;363;48.764;9.172;2022-10-16T16:07:27;4.93;;;3.43;;
757;SDS011;363;48.764;9.172;2022-10-16T16:09:52;4.90;;;3.90;;
757;SDS011;363;48.764;9.172;2022-10-16T16:12:18;6.00;;;4.33;;
757;SDS011;363;48.764;9.172;2022-10-16T16:14:44;8.93;;;4.40;;
757;SDS011;363;48.764;9.172;2022-10-16T16:17:11;5.40;;;4.13;;
757;SDS011;363;48.764;9.172;2022-10-16T16:19:36;4.80;;;3.57;;
757;SDS011;363;48.764;9.172;2022-10-16T16:22:02;4.70;;;4.13;;
757;SDS011;363;48.764;9.172;2022-10-16T16:24:28;6.00;;;4.97;;
757;SDS011;363;48.764;9.172;2022-10-16T16:26:53;5.30;;;4.80;;
757;SDS011;363;48.764;9.172;2022-10-16T16:29:19;8.80;;;5.60;;
757;SDS011;363;48.764;9.172;2022-10-16T16:31:44;7.57;;;4.63;;
757;SDS011;363;48.764;9.172;2022-10-16T16:34:12;5.63;;;5.18;;
757;SDS011;363;48.764;9.172;2022-10-16T16:36:38;5.07;;;4.53;;
757;SDS011;363;48.764;9.172;2022-10-16T16:39:05;7.78;;;5.10;;
757;SDS011;363;48.764;9.172;2022-10-16T16:41:31;9.50;;;5.78;;
757;SDS011;363;48.764;9.172;2022-10-16T16:44:04;5.20;;;4.18;;
757;SDS011;363;48.764;9.172;2022-10-16T16:46:32;7.13;;;4.45;;
757;SDS011;363;48.764;9.172;2022-10-16T16:48:59;7.60;;;4.38;;
757;SDS011;363;48.764;9.172;2022-10-16T16:51:25;7.35;;;3.75;;
757;SDS011;363;48.764;9.172;2022-10-16T16:53:51;6.03;;;4.03;;
757;SDS011;363;48.764;9.172;2022-10-16T16:56:18;4.78;;;4.05;;
757;SDS011;363;48.764;9.172;2022-10-16T16:58:45;5.05;;;3.53;;
757;SDS011;363;48.764;9.172;2022-10-16T17:01:14;6.60;;;3.60;;
757;SDS011;363;48.764;9.172;2022-10-16T17:03:41;5.57;;;4.53;;
757;SDS011;363;48.764;9.172;2022-10-16T17:06:12;5.65;;;4.68;;
757;SDS011;363;48.764;9.172;2022-10-16T17:08:42;5.97;;;4.47;;
757;SDS011;363;48.764;9.172;2022-10-16T17:11:15;5.20;;;4.60;;
757;SDS011;363;48.764;9.172;2022-10-16T17:13:42;9.73;;;6.85;;
757;SDS011;363;48.764;9.172;2022-10-16T17:16:08;5.40;;;3.90;;
757;SDS011;363;48.764;9.172;2022-10-16T17:18:34;4.88;;;4.10;;
757;SDS011;363;48.764;9.172;2022-10-16T17:21:00;8.90;;;5.33;;
757;SDS011;363;48.764;9.172;2022-10-16T17:23:28;6.38;;;4.95;;
757;SDS011;363;48.764;9.172;2022-10-16T17:25:54;6.78;;;5.32;;
757;SDS011;363;48.764;9.172;2022-10-16T17:28:20;6.55;;;5.28;;
757;SDS011;363;48.764;9.172;2022-10-16T17:30:46;7.13;;;5.70;;
757;SDS011;363;48.764;9.172;2022-10-16T17:33:12;14.10;;;6.00;;
757;SDS011;363;48.764;9.172;2022-10-16T17:35:45;7.43;;;6.70;;
757;SDS011;363;48.764;9.172;2022-10-16T17:38:11;8.65;;;4.55;;
757;SDS011;363;48.764;9.172;2022-10-16T17:40:39;9.30;;;5.38;;
757;SDS011;363;48.764;9.172;2022-10-16T17:43:05;7.88;;;5.00;;
757;SDS011;363;48.764;9.172;2022-10-16T17:45:31;6.20;;;4.70;;
757;SDS011;363;48.764;9.172;2022-10-16T17:48:00;5.30;;;4.45;;
757;SDS011;363;48.764;9.172;2022-10-16T17:50:26;6.57;;;5.50;;
757;SDS011;363;48.764;9.172;2022-10-16T17:52:51;6.37;;;5.77;;
757;SDS011;363;48.764;9.172;2022-10-16T17:55:17;12.57;;;4.83;;
757;SDS011;363;48.764;9.172;2022-10-16T17:57:43;7.90;;;4.50;;